sensor_id;sensor_type;location;lat;lon;timestamp;temperature;humidity
15983;DHT22;14442;50.196;8.096;2022-08-24T00:00:30;20.10;59.60
15983;DHT22;14442;50.196;8.096;2022-08-24T00:02:59;20.10;59.50
15983;DHT22;14442;50.196;8.096;2022-08-24T00:05:26;20.20;59.60
15983;DHT22;14442;50.196;8.096;2022-08-24T00:07:53;20.20;59.30
15983;DHT22;14442;50.196;8.096;2022-08-24T00:10:20;20.20;59.40
15983;DHT22;14442;50.196;8.096;2022-08-24T00:12:47;20.30;59.40
15983;DHT22;14442;50.196;8.096;2022-08-24T00:15:17;20.30;59.40
15983;DHT22;14442;50.196;8.096;2022-08-24T00:17:44;20.30;59.50
15983;DHT22;14442;50.196;8.096;2022-08-24T00:20:11;20.20;59.50
15983;DHT22;14442;50.196;8.096;2022-08-24T00:22:38;20.20;59.60
15983;DHT22;14442;50.196;8.096;2022-08-24T00:25:06;20.20;59.60
15983;DHT22;14442;50.196;8.096;2022-08-24T00:27:33;20.20;59.50
15983;DHT22;14442;50.196;8.096;2022-08-24T00:30:02;20.20;59.70
15983;DHT22;14442;50.196;8.096;2022-08-24T00:32:31;20.20;59.60
15983;DHT22;14442;50.196;8.096;2022-08-24T00:34:58;20.20;59.60
15983;DHT22;14442;50.196;8.096;2022-08-24T00:37:25;20.10;59.50
15983;DHT22;14442;50.196;8.096;2022-08-24T00:39:53;20.00;59.80
15983;DHT22;14442;50.196;8.096;2022-08-24T00:42:20;19.90;59.80
15983;DHT22;14442;50.196;8.096;2022-08-24T00:44:47;20.00;59.90
15983;DHT22;14442;50.196;8.096;2022-08-24T00:47:19;20.00;59.90
15983;DHT22;14442;50.196;8.096;2022-08-24T00:49:52;19.90;59.80
15983;DHT22;14442;50.196;8.096;2022-08-24T00:52:23;19.90;60.00
15983;DHT22;14442;50.196;8.096;2022-08-24T00:54:58;19.90;59.80
15983;DHT22;14442;50.196;8.096;2022-08-24T00:57:29;19.90;60.00
15983;DHT22;14442;50.196;8.096;2022-08-24T01:00:04;19.90;60.10
15983;DHT22;14442;50.196;8.096;2022-08-24T01:02:33;19.90;60.00
15983;DHT22;14442;50.196;8.096;2022-08-24T01:05:05;19.90;60.10
15983;DHT22;14442;50.196;8.096;2022-08-24T01:07:33;19.90;60.20
15983;DHT22;14442;50.196;8.096;2022-08-24T01:10:03;19.90;60.00
15983;DHT22;14442;50.196;8.096;2022-08-24T01:12:32;19.90;59.90
15983;DHT22;14442;50.196;8.096;2022-08-24T01:15:01;19.90;59.80
15983;DHT22;14442;50.196;8.096;2022-08-24T01:17:28;19.90;59.70
15983;DHT22;14442;50.196;8.096;2022-08-24T01:20:15;19.90;59.70
15983;DHT22;14442;50.196;8.096;2022-08-24T01:22:51;19.90;59.90
15983;DHT22;14442;50.196;8.096;2022-08-24T01:25:23;19.90;59.80
15983;DHT22;14442;50.196;8.096;2022-08-24T01:27:53;19.70;59.50
15983;DHT22;14442;50.196;8.096;2022-08-24T01:30:21;19.80;59.70
15983;DHT22;14442;50.196;8.096;2022-08-24T01:32:53;19.80;59.60
15983;DHT22;14442;50.196;8.096;2022-08-24T01:35:20;19.80;59.50
15983;DHT22;14442;50.196;8.096;2022-08-24T01:37:47;19.70;59.40
15983;DHT22;14442;50.196;8.096;2022-08-24T01:40:15;19.70;59.40
15983;DHT22;14442;50.196;8.096;2022-08-24T01:42:48;19.70;59.40
15983;DHT22;14442;50.196;8.096;2022-08-24T01:45:16;19.70;59.50
15983;DHT22;14442;50.196;8.096;2022-08-24T01:47:43;19.70;59.30
15983;DHT22;14442;50.196;8.096;2022-08-24T01:50:10;19.60;59.20
15983;DHT22;14442;50.196;8.096;2022-08-24T01:52:38;19.50;59.40
15983;DHT22;14442;50.196;8.096;2022-08-24T01:55:07;19.50;59.40
15983;DHT22;14442;50.196;8.096;2022-08-24T01:57:34;19.50;59.50
15983;DHT22;14442;50.196;8.096;2022-08-24T02:00:04;19.50;59.30
15983;DHT22;14442;50.196;8.096;2022-08-24T02:02:31;19.50;59.30
15983;DHT22;14442;50.196;8.096;2022-08-24T02:04:58;19.50;59.30
15983;DHT22;14442;50.196;8.096;2022-08-24T02:07:25;19.60;59.30
15983;DHT22;14442;50.196;8.096;2022-08-24T02:09:54;19.60;59.10
15983;DHT22;14442;50.196;8.096;2022-08-24T02:12:20;19.60;59.40
15983;DHT22;14442;50.196;8.096;2022-08-24T02:14:47;19.60;59.20
15983;DHT22;14442;50.196;8.096;2022-08-24T02:17:15;19.50;59.20
15983;DHT22;14442;50.196;8.096;2022-08-24T02:19:43;19.50;59.20
15983;DHT22;14442;50.196;8.096;2022-08-24T02:22:10;19.40;59.10
15983;DHT22;14442;50.196;8.096;2022-08-24T02:24:36;19.40;59.10
15983;DHT22;14442;50.196;8.096;2022-08-24T02:27:04;19.40;59.20
15983;DHT22;14442;50.196;8.096;2022-08-24T02:29:31;19.40;59.30
15983;DHT22;14442;50.196;8.096;2022-08-24T02:31:58;19.40;60.00
15983;DHT22;14442;50.196;8.096;2022-08-24T02:34:26;19.40;59.50
15983;DHT22;14442;50.196;8.096;2022-08-24T02:36:53;19.40;59.40
15983;DHT22;14442;50.196;8.096;2022-08-24T02:39:20;19.30;59.40
15983;DHT22;14442;50.196;8.096;2022-08-24T02:41:46;19.30;59.60
15983;DHT22;14442;50.196;8.096;2022-08-24T02:44:14;19.20;59.60
15983;DHT22;14442;50.196;8.096;2022-08-24T02:46:41;19.20;59.60
15983;DHT22;14442;50.196;8.096;2022-08-24T02:49:08;19.10;59.60
15983;DHT22;14442;50.196;8.096;2022-08-24T02:51:37;19.10;59.80
15983;DHT22;14442;50.196;8.096;2022-08-24T02:54:05;19.00;59.80
15983;DHT22;14442;50.196;8.096;2022-08-24T02:56:32;18.90;60.00
15983;DHT22;14442;50.196;8.096;2022-08-24T02:59:00;19.00;60.00
15983;DHT22;14442;50.196;8.096;2022-08-24T03:01:27;19.00;59.70
15983;DHT22;14442;50.196;8.096;2022-08-24T03:03:55;18.90;59.80
15983;DHT22;14442;50.196;8.096;2022-08-24T03:06:22;18.90;59.80
15983;DHT22;14442;50.196;8.096;2022-08-24T03:08:50;18.90;59.80
15983;DHT22;14442;50.196;8.096;2022-08-24T03:11:17;18.90;59.60
15983;DHT22;14442;50.196;8.096;2022-08-24T03:13:43;18.90;59.60
15983;DHT22;14442;50.196;8.096;2022-08-24T03:16:10;18.80;59.80
15983;DHT22;14442;50.196;8.096;2022-08-24T03:18:37;18.90;59.90
15983;DHT22;14442;50.196;8.096;2022-08-24T03:21:04;18.70;59.90
15983;DHT22;14442;50.196;8.096;2022-08-24T03:23:31;18.80;59.80
15983;DHT22;14442;50.196;8.096;2022-08-24T03:26:00;18.80;59.80
15983;DHT22;14442;50.196;8.096;2022-08-24T03:28:27;18.80;59.60
15983;DHT22;14442;50.196;8.096;2022-08-24T03:30:54;18.80;59.50
15983;DHT22;14442;50.196;8.096;2022-08-24T03:33:21;18.90;59.50
15983;DHT22;14442;50.196;8.096;2022-08-24T03:35:48;18.80;59.40
15983;DHT22;14442;50.196;8.096;2022-08-24T03:38:15;18.90;59.10
15983;DHT22;14442;50.196;8.096;2022-08-24T03:40:42;18.80;59.20
15983;DHT22;14442;50.196;8.096;2022-08-24T03:43:10;18.80;59.20
15983;DHT22;14442;50.196;8.096;2022-08-24T03:45:58;18.70;59.40
15983;DHT22;14442;50.196;8.096;2022-08-24T03:48:27;18.70;59.80
15983;DHT22;14442;50.196;8.096;2022-08-24T03:50:54;18.60;59.80
15983;DHT22;14442;50.196;8.096;2022-08-24T03:53:21;18.50;59.70
15983;DHT22;14442;50.196;8.096;2022-08-24T03:55:48;18.50;59.90
15983;DHT22;14442;50.196;8.096;2022-08-24T03:58:16;18.50;59.80
15983;DHT22;14442;50.196;8.096;2022-08-24T04:00:43;18.50;59.80
15983;DHT22;14442;50.196;8.096;2022-08-24T04:03:11;18.50;59.90
15983;DHT22;14442;50.196;8.096;2022-08-24T04:05:38;18.50;59.90
15983;DHT22;14442;50.196;8.096;2022-08-24T04:08:07;18.50;59.80
15983;DHT22;14442;50.196;8.096;2022-08-24T04:10:34;18.40;60.00
15983;DHT22;14442;50.196;8.096;2022-08-24T04:13:01;18.30;60.00
15983;DHT22;14442;50.196;8.096;2022-08-24T04:15:29;18.30;60.00
15983;DHT22;14442;50.196;8.096;2022-08-24T04:17:57;18.20;60.00
15983;DHT22;14442;50.196;8.096;2022-08-24T04:20:23;18.20;60.20
15983;DHT22;14442;50.196;8.096;2022-08-24T04:22:50;18.20;60.10
15983;DHT22;14442;50.196;8.096;2022-08-24T04:25:17;18.20;60.30
15983;DHT22;14442;50.196;8.096;2022-08-24T04:27:44;18.10;60.00
15983;DHT22;14442;50.196;8.096;2022-08-24T04:30:11;18.10;60.20
15983;DHT22;14442;50.196;8.096;2022-08-24T04:32:40;18.20;60.00
15983;DHT22;14442;50.196;8.096;2022-08-24T04:35:08;18.30;59.80
15983;DHT22;14442;50.196;8.096;2022-08-24T04:37:34;18.20;59.70
15983;DHT22;14442;50.196;8.096;2022-08-24T04:40:03;18.10;60.00
15983;DHT22;14442;50.196;8.096;2022-08-24T04:42:30;18.00;60.00
15983;DHT22;14442;50.196;8.096;2022-08-24T04:44:57;18.10;60.20
15983;DHT22;14442;50.196;8.096;2022-08-24T04:47:24;18.00;60.20
15983;DHT22;14442;50.196;8.096;2022-08-24T04:49:52;18.00;60.40
15983;DHT22;14442;50.196;8.096;2022-08-24T04:52:20;18.00;60.20
15983;DHT22;14442;50.196;8.096;2022-08-24T04:54:47;17.90;60.50
15983;DHT22;14442;50.196;8.096;2022-08-24T04:57:14;17.90;60.50
15983;DHT22;14442;50.196;8.096;2022-08-24T04:59:40;18.00;60.60
15983;DHT22;14442;50.196;8.096;2022-08-24T05:02:08;18.00;60.40
15983;DHT22;14442;50.196;8.096;2022-08-24T05:04:35;18.00;60.40
15983;DHT22;14442;50.196;8.096;2022-08-24T05:07:04;17.90;60.50
15983;DHT22;14442;50.196;8.096;2022-08-24T05:09:30;18.00;60.80
15983;DHT22;14442;50.196;8.096;2022-08-24T05:11:57;18.00;60.70
15983;DHT22;14442;50.196;8.096;2022-08-24T05:14:24;17.90;60.70
15983;DHT22;14442;50.196;8.096;2022-08-24T05:16:52;17.90;60.80
15983;DHT22;14442;50.196;8.096;2022-08-24T05:19:19;17.90;60.80
15983;DHT22;14442;50.196;8.096;2022-08-24T05:21:46;17.80;61.20
15983;DHT22;14442;50.196;8.096;2022-08-24T05:24:14;17.90;61.20
15983;DHT22;14442;50.196;8.096;2022-08-24T05:26:40;17.90;61.30
15983;DHT22;14442;50.196;8.096;2022-08-24T05:29:08;17.90;61.10
15983;DHT22;14442;50.196;8.096;2022-08-24T05:31:35;18.00;61.30
15983;DHT22;14442;50.196;8.096;2022-08-24T05:34:02;17.90;61.00
15983;DHT22;14442;50.196;8.096;2022-08-24T05:36:32;18.00;61.40
15983;DHT22;14442;50.196;8.096;2022-08-24T05:39:02;18.00;61.60
15983;DHT22;14442;50.196;8.096;2022-08-24T05:41:30;18.00;61.60
15983;DHT22;14442;50.196;8.096;2022-08-24T05:43:57;18.00;61.70
15983;DHT22;14442;50.196;8.096;2022-08-24T05:46:24;17.90;62.00
15983;DHT22;14442;50.196;8.096;2022-08-24T05:48:50;17.90;62.20
15983;DHT22;14442;50.196;8.096;2022-08-24T05:51:17;17.90;62.10
15983;DHT22;14442;50.196;8.096;2022-08-24T05:53:44;18.00;61.80
15983;DHT22;14442;50.196;8.096;2022-08-24T05:56:13;18.00;61.80
15983;DHT22;14442;50.196;8.096;2022-08-24T05:58:43;18.10;62.20
15983;DHT22;14442;50.196;8.096;2022-08-24T06:01:15;18.10;62.20
15983;DHT22;14442;50.196;8.096;2022-08-24T06:03:43;18.20;62.90
15983;DHT22;14442;50.196;8.096;2022-08-24T06:06:10;18.20;61.60
15983;DHT22;14442;50.196;8.096;2022-08-24T06:08:40;18.20;62.30
15983;DHT22;14442;50.196;8.096;2022-08-24T06:11:08;18.30;62.30
15983;DHT22;14442;50.196;8.096;2022-08-24T06:13:35;18.40;61.60
15983;DHT22;14442;50.196;8.096;2022-08-24T06:16:05;18.30;61.90
15983;DHT22;14442;50.196;8.096;2022-08-24T06:18:32;18.30;62.20
15983;DHT22;14442;50.196;8.096;2022-08-24T06:21:03;18.20;63.40
15983;DHT22;14442;50.196;8.096;2022-08-24T06:23:30;18.10;64.00
15983;DHT22;14442;50.196;8.096;2022-08-24T06:25:56;17.90;64.60
15983;DHT22;14442;50.196;8.096;2022-08-24T06:28:41;17.90;65.90
15983;DHT22;14442;50.196;8.096;2022-08-24T06:31:09;18.40;64.20
15983;DHT22;14442;50.196;8.096;2022-08-24T06:33:35;18.80;63.20
15983;DHT22;14442;50.196;8.096;2022-08-24T06:36:03;19.00;62.60
15983;DHT22;14442;50.196;8.096;2022-08-24T06:38:30;19.20;62.10
15983;DHT22;14442;50.196;8.096;2022-08-24T06:40:57;19.30;61.80
15983;DHT22;14442;50.196;8.096;2022-08-24T06:43:23;19.30;61.60
15983;DHT22;14442;50.196;8.096;2022-08-24T06:45:51;19.40;61.50
15983;DHT22;14442;50.196;8.096;2022-08-24T06:48:20;19.40;61.30
15983;DHT22;14442;50.196;8.096;2022-08-24T06:50:48;19.50;61.30
15983;DHT22;14442;50.196;8.096;2022-08-24T06:53:15;19.50;61.30
15983;DHT22;14442;50.196;8.096;2022-08-24T06:55:46;19.50;61.90
15983;DHT22;14442;50.196;8.096;2022-08-24T06:58:14;19.50;61.20
15983;DHT22;14442;50.196;8.096;2022-08-24T07:00:41;19.60;61.20
15983;DHT22;14442;50.196;8.096;2022-08-24T07:03:08;19.60;61.20
15983;DHT22;14442;50.196;8.096;2022-08-24T07:05:36;19.60;61.10
15983;DHT22;14442;50.196;8.096;2022-08-24T07:08:04;19.70;61.20
15983;DHT22;14442;50.196;8.096;2022-08-24T07:10:32;19.70;61.10
15983;DHT22;14442;50.196;8.096;2022-08-24T07:12:59;19.70;61.10
15983;DHT22;14442;50.196;8.096;2022-08-24T07:15:26;19.70;61.10
15983;DHT22;14442;50.196;8.096;2022-08-24T07:17:53;19.80;61.10
15983;DHT22;14442;50.196;8.096;2022-08-24T07:20:20;19.80;61.10
15983;DHT22;14442;50.196;8.096;2022-08-24T07:22:48;19.80;61.00
15983;DHT22;14442;50.196;8.096;2022-08-24T07:25:15;19.80;61.00
15983;DHT22;14442;50.196;8.096;2022-08-24T07:27:42;19.80;61.00
15983;DHT22;14442;50.196;8.096;2022-08-24T07:30:09;19.90;61.00
15983;DHT22;14442;50.196;8.096;2022-08-24T07:32:36;19.90;61.10
15983;DHT22;14442;50.196;8.096;2022-08-24T07:35:03;19.90;61.00
15983;DHT22;14442;50.196;8.096;2022-08-24T07:37:30;19.90;61.30
15983;DHT22;14442;50.196;8.096;2022-08-24T07:39:58;19.90;62.00
15983;DHT22;14442;50.196;8.096;2022-08-24T07:42:25;20.00;62.50
15983;DHT22;14442;50.196;8.096;2022-08-24T07:44:52;20.00;62.50
15983;DHT22;14442;50.196;8.096;2022-08-24T07:47:19;20.00;62.50
15983;DHT22;14442;50.196;8.096;2022-08-24T07:49:45;20.10;62.70
15983;DHT22;14442;50.196;8.096;2022-08-24T07:52:12;20.10;63.00
15983;DHT22;14442;50.196;8.096;2022-08-24T07:54:39;20.20;64.60
15983;DHT22;14442;50.196;8.096;2022-08-24T07:57:07;20.30;65.30
15983;DHT22;14442;50.196;8.096;2022-08-24T07:59:35;20.30;65.10
15983;DHT22;14442;50.196;8.096;2022-08-24T08:02:02;20.40;65.10
15983;DHT22;14442;50.196;8.096;2022-08-24T08:04:29;20.40;64.70
15983;DHT22;14442;50.196;8.096;2022-08-24T08:06:56;20.40;64.50
15983;DHT22;14442;50.196;8.096;2022-08-24T08:09:25;20.40;64.40
15983;DHT22;14442;50.196;8.096;2022-08-24T08:11:52;20.40;64.20
15983;DHT22;14442;50.196;8.096;2022-08-24T08:14:20;20.40;64.80
15983;DHT22;14442;50.196;8.096;2022-08-24T08:16:47;20.50;64.10
15983;DHT22;14442;50.196;8.096;2022-08-24T08:19:14;20.50;64.10
15983;DHT22;14442;50.196;8.096;2022-08-24T08:21:41;20.50;64.00
15983;DHT22;14442;50.196;8.096;2022-08-24T08:24:26;20.50;63.90
15983;DHT22;14442;50.196;8.096;2022-08-24T08:26:53;20.50;63.90
15983;DHT22;14442;50.196;8.096;2022-08-24T08:29:21;20.50;63.80
15983;DHT22;14442;50.196;8.096;2022-08-24T08:31:49;20.50;63.70
15983;DHT22;14442;50.196;8.096;2022-08-24T08:34:17;20.50;63.60
15983;DHT22;14442;50.196;8.096;2022-08-24T08:36:44;20.60;63.60
15983;DHT22;14442;50.196;8.096;2022-08-24T08:39:13;20.60;63.30
15983;DHT22;14442;50.196;8.096;2022-08-24T08:42:02;20.60;63.10
15983;DHT22;14442;50.196;8.096;2022-08-24T08:44:50;20.60;63.00
15983;DHT22;14442;50.196;8.096;2022-08-24T08:47:38;20.60;62.90
15983;DHT22;14442;50.196;8.096;2022-08-24T08:50:16;20.60;62.80
15983;DHT22;14442;50.196;8.096;2022-08-24T08:56:05;20.70;63.00
15983;DHT22;14442;50.196;8.096;2022-08-24T08:58:54;20.70;63.50
15983;DHT22;14442;50.196;8.096;2022-08-24T09:01:34;20.70;63.40
15983;DHT22;14442;50.196;8.096;2022-08-24T09:04:13;20.80;63.60
15983;DHT22;14442;50.196;8.096;2022-08-24T09:06:57;20.80;63.30
15983;DHT22;14442;50.196;8.096;2022-08-24T09:09:54;20.90;63.70
15983;DHT22;14442;50.196;8.096;2022-08-24T09:12:33;20.90;63.30
15983;DHT22;14442;50.196;8.096;2022-08-24T09:15:14;20.90;63.30
15983;DHT22;14442;50.196;8.096;2022-08-24T09:18:00;20.90;63.00
15983;DHT22;14442;50.196;8.096;2022-08-24T09:20:47;20.90;63.00
15983;DHT22;14442;50.196;8.096;2022-08-24T09:23:24;21.00;63.30
15983;DHT22;14442;50.196;8.096;2022-08-24T09:25:59;21.00;63.10
15983;DHT22;14442;50.196;8.096;2022-08-24T09:28:37;20.90;63.00
15983;DHT22;14442;50.196;8.096;2022-08-24T09:31:32;21.00;63.10
15983;DHT22;14442;50.196;8.096;2022-08-24T09:34:19;21.00;63.00
15983;DHT22;14442;50.196;8.096;2022-08-24T09:36:53;21.10;63.10
15983;DHT22;14442;50.196;8.096;2022-08-24T09:39:35;21.10;63.00
15983;DHT22;14442;50.196;8.096;2022-08-24T09:45:41;21.10;62.90
15983;DHT22;14442;50.196;8.096;2022-08-24T09:51:57;21.10;62.50
15983;DHT22;14442;50.196;8.096;2022-08-24T09:54:40;21.20;62.80
15983;DHT22;14442;50.196;8.096;2022-08-24T09:57:30;21.20;62.80
15983;DHT22;14442;50.196;8.096;2022-08-24T10:00:08;21.20;62.70
15983;DHT22;14442;50.196;8.096;2022-08-24T10:02:52;21.20;62.40
15983;DHT22;14442;50.196;8.096;2022-08-24T10:05:38;21.30;62.20
15983;DHT22;14442;50.196;8.096;2022-08-24T10:08:18;21.40;61.90
15983;DHT22;14442;50.196;8.096;2022-08-24T10:10:50;21.40;61.80
15983;DHT22;14442;50.196;8.096;2022-08-24T10:13:25;21.40;61.80
15983;DHT22;14442;50.196;8.096;2022-08-24T10:16:08;21.40;61.90
15983;DHT22;14442;50.196;8.096;2022-08-24T10:18:46;21.40;62.00
15983;DHT22;14442;50.196;8.096;2022-08-24T10:21:23;21.40;62.20
15983;DHT22;14442;50.196;8.096;2022-08-24T10:24:06;21.40;61.90
15983;DHT22;14442;50.196;8.096;2022-08-24T10:26:50;21.50;62.10
15983;DHT22;14442;50.196;8.096;2022-08-24T10:29:41;21.50;62.30
15983;DHT22;14442;50.196;8.096;2022-08-24T10:32:21;21.60;62.10
15983;DHT22;14442;50.196;8.096;2022-08-24T10:35:01;21.60;62.20
15983;DHT22;14442;50.196;8.096;2022-08-24T10:37:49;21.60;62.30
15983;DHT22;14442;50.196;8.096;2022-08-24T10:40:46;21.60;62.30
15983;DHT22;14442;50.196;8.096;2022-08-24T10:43:36;21.60;62.50
15983;DHT22;14442;50.196;8.096;2022-08-24T10:46:31;21.60;62.30
15983;DHT22;14442;50.196;8.096;2022-08-24T10:55:33;21.70;62.40
15983;DHT22;14442;50.196;8.096;2022-08-24T11:01:24;21.80;62.40
15983;DHT22;14442;50.196;8.096;2022-08-24T11:03:58;21.80;62.20
15983;DHT22;14442;50.196;8.096;2022-08-24T11:06:28;21.80;61.90
15983;DHT22;14442;50.196;8.096;2022-08-24T11:09:00;21.80;61.80
15983;DHT22;14442;50.196;8.096;2022-08-24T11:11:30;21.90;61.90
15983;DHT22;14442;50.196;8.096;2022-08-24T11:14:02;21.90;61.50
15983;DHT22;14442;50.196;8.096;2022-08-24T11:16:32;21.90;61.50
15983;DHT22;14442;50.196;8.096;2022-08-24T11:19:02;21.90;61.50
15983;DHT22;14442;50.196;8.096;2022-08-24T11:21:43;21.90;61.30
15983;DHT22;14442;50.196;8.096;2022-08-24T11:24:24;22.00;61.50
15983;DHT22;14442;50.196;8.096;2022-08-24T11:26:54;22.00;61.50
15983;DHT22;14442;50.196;8.096;2022-08-24T11:29:26;22.00;61.50
15983;DHT22;14442;50.196;8.096;2022-08-24T11:31:56;22.00;61.50
15983;DHT22;14442;50.196;8.096;2022-08-24T11:34:32;22.00;61.50
15983;DHT22;14442;50.196;8.096;2022-08-24T11:36:59;22.00;61.40
15983;DHT22;14442;50.196;8.096;2022-08-24T11:39:29;22.00;61.30
15983;DHT22;14442;50.196;8.096;2022-08-24T11:42:02;22.00;61.40
15983;DHT22;14442;50.196;8.096;2022-08-24T11:44:52;22.00;61.30
15983;DHT22;14442;50.196;8.096;2022-08-24T11:50:21;22.00;61.30
15983;DHT22;14442;50.196;8.096;2022-08-24T11:52:58;22.00;61.20
15983;DHT22;14442;50.196;8.096;2022-08-24T11:55:30;22.00;61.20
15983;DHT22;14442;50.196;8.096;2022-08-24T11:58:02;22.00;61.10
15983;DHT22;14442;50.196;8.096;2022-08-24T12:00:42;22.00;61.10
15983;DHT22;14442;50.196;8.096;2022-08-24T12:03:25;22.00;61.10
15983;DHT22;14442;50.196;8.096;2022-08-24T12:05:59;22.10;61.20
15983;DHT22;14442;50.196;8.096;2022-08-24T12:08:34;22.10;61.10
15983;DHT22;14442;50.196;8.096;2022-08-24T12:11:10;22.20;61.00
15983;DHT22;14442;50.196;8.096;2022-08-24T12:13:45;22.20;61.10
15983;DHT22;14442;50.196;8.096;2022-08-24T12:16:21;22.20;61.10
15983;DHT22;14442;50.196;8.096;2022-08-24T12:18:55;22.20;61.00
15983;DHT22;14442;50.196;8.096;2022-08-24T12:21:26;22.20;61.10
15983;DHT22;14442;50.196;8.096;2022-08-24T12:23:59;22.20;61.00
15983;DHT22;14442;50.196;8.096;2022-08-24T12:26:32;22.20;60.90
15983;DHT22;14442;50.196;8.096;2022-08-24T12:29:05;22.20;60.90
15983;DHT22;14442;50.196;8.096;2022-08-24T12:31:37;22.20;60.90
15983;DHT22;14442;50.196;8.096;2022-08-24T12:34:09;22.30;61.00
15983;DHT22;14442;50.196;8.096;2022-08-24T12:36:46;22.30;61.00
15983;DHT22;14442;50.196;8.096;2022-08-24T12:39:21;22.30;61.00
15983;DHT22;14442;50.196;8.096;2022-08-24T12:41:57;22.30;61.00
15983;DHT22;14442;50.196;8.096;2022-08-24T12:44:37;22.30;61.00
15983;DHT22;14442;50.196;8.096;2022-08-24T12:47:07;22.30;61.00
15983;DHT22;14442;50.196;8.096;2022-08-24T12:49:40;22.30;61.10
15983;DHT22;14442;50.196;8.096;2022-08-24T12:52:24;22.40;61.10
15983;DHT22;14442;50.196;8.096;2022-08-24T12:55:09;22.40;61.00
15983;DHT22;14442;50.196;8.096;2022-08-24T12:57:49;22.50;61.10
15983;DHT22;14442;50.196;8.096;2022-08-24T13:00:20;22.50;60.90
15983;DHT22;14442;50.196;8.096;2022-08-24T13:02:56;22.60;60.90
15983;DHT22;14442;50.196;8.096;2022-08-24T13:05:23;22.60;60.90
15983;DHT22;14442;50.196;8.096;2022-08-24T13:07:51;22.70;61.00
15983;DHT22;14442;50.196;8.096;2022-08-24T13:10:38;22.70;61.00
15983;DHT22;14442;50.196;8.096;2022-08-24T13:13:15;22.70;61.00
15983;DHT22;14442;50.196;8.096;2022-08-24T13:15:59;22.70;61.00
15983;DHT22;14442;50.196;8.096;2022-08-24T13:21:41;22.90;61.10
15983;DHT22;14442;50.196;8.096;2022-08-24T13:30:58;22.90;61.10
15983;DHT22;14442;50.196;8.096;2022-08-24T13:33:31;22.90;61.10
15983;DHT22;14442;50.196;8.096;2022-08-24T13:36:05;22.90;61.10
15983;DHT22;14442;50.196;8.096;2022-08-24T13:38:48;23.00;61.20
15983;DHT22;14442;50.196;8.096;2022-08-24T13:44:17;23.00;61.10
15983;DHT22;14442;50.196;8.096;2022-08-24T13:46:51;23.00;61.10
15983;DHT22;14442;50.196;8.096;2022-08-24T13:49:34;23.10;61.20
15983;DHT22;14442;50.196;8.096;2022-08-24T13:52:12;23.10;61.20
15983;DHT22;14442;50.196;8.096;2022-08-24T13:54:52;23.10;61.10
15983;DHT22;14442;50.196;8.096;2022-08-24T13:57:35;23.10;61.00
15983;DHT22;14442;50.196;8.096;2022-08-24T14:03:05;23.00;61.10
15983;DHT22;14442;50.196;8.096;2022-08-24T14:05:40;23.00;61.10
15983;DHT22;14442;50.196;8.096;2022-08-24T14:08:24;23.00;61.20
15983;DHT22;14442;50.196;8.096;2022-08-24T14:11:06;23.00;62.10
15983;DHT22;14442;50.196;8.096;2022-08-24T14:14:00;23.00;61.30
15983;DHT22;14442;50.196;8.096;2022-08-24T14:16:37;23.00;61.10
15983;DHT22;14442;50.196;8.096;2022-08-24T14:19:30;23.10;61.00
15983;DHT22;14442;50.196;8.096;2022-08-24T14:22:04;23.20;61.00
15983;DHT22;14442;50.196;8.096;2022-08-24T14:24:36;23.20;60.90
15983;DHT22;14442;50.196;8.096;2022-08-24T14:27:13;23.20;61.00
15983;DHT22;14442;50.196;8.096;2022-08-24T14:33:07;23.20;60.90
15983;DHT22;14442;50.196;8.096;2022-08-24T14:35:37;23.20;60.80
15983;DHT22;14442;50.196;8.096;2022-08-24T14:38:25;23.20;60.80
15983;DHT22;14442;50.196;8.096;2022-08-24T14:41:00;23.30;61.10
15983;DHT22;14442;50.196;8.096;2022-08-24T14:43:40;23.20;61.00
15983;DHT22;14442;50.196;8.096;2022-08-24T14:46:18;23.20;61.00
15983;DHT22;14442;50.196;8.096;2022-08-24T14:48:53;23.20;61.00
15983;DHT22;14442;50.196;8.096;2022-08-24T14:51:40;23.20;61.00
15983;DHT22;14442;50.196;8.096;2022-08-24T14:54:22;23.30;61.00
15983;DHT22;14442;50.196;8.096;2022-08-24T14:56:58;23.30;60.90
15983;DHT22;14442;50.196;8.096;2022-08-24T14:59:40;23.30;61.00
15983;DHT22;14442;50.196;8.096;2022-08-24T15:05:20;23.30;60.70
15983;DHT22;14442;50.196;8.096;2022-08-24T15:07:55;23.30;60.80
15983;DHT22;14442;50.196;8.096;2022-08-24T15:10:24;23.30;60.70
15983;DHT22;14442;50.196;8.096;2022-08-24T15:12:57;23.30;61.10
15983;DHT22;14442;50.196;8.096;2022-08-24T15:15:30;23.30;61.50
15983;DHT22;14442;50.196;8.096;2022-08-24T15:18:02;23.30;61.40
15983;DHT22;14442;50.196;8.096;2022-08-24T15:20:46;23.30;61.50
15983;DHT22;14442;50.196;8.096;2022-08-24T15:23:19;23.30;61.60
15983;DHT22;14442;50.196;8.096;2022-08-24T15:25:52;23.30;61.40
15983;DHT22;14442;50.196;8.096;2022-08-24T15:28:23;23.20;61.40
15983;DHT22;14442;50.196;8.096;2022-08-24T15:30:57;23.20;61.30
15983;DHT22;14442;50.196;8.096;2022-08-24T15:33:25;23.20;61.30
15983;DHT22;14442;50.196;8.096;2022-08-24T15:36:05;23.20;61.30
15983;DHT22;14442;50.196;8.096;2022-08-24T15:38:34;23.10;61.10
15983;DHT22;14442;50.196;8.096;2022-08-24T15:41:05;23.10;61.10
15983;DHT22;14442;50.196;8.096;2022-08-24T15:43:33;23.20;62.00
15983;DHT22;14442;50.196;8.096;2022-08-24T15:46:03;23.10;61.00
15983;DHT22;14442;50.196;8.096;2022-08-24T15:48:30;23.10;61.10
15983;DHT22;14442;50.196;8.096;2022-08-24T15:50:57;23.20;61.10
15983;DHT22;14442;50.196;8.096;2022-08-24T15:53:32;23.20;61.10
15983;DHT22;14442;50.196;8.096;2022-08-24T15:56:28;23.10;61.60
15983;DHT22;14442;50.196;8.096;2022-08-24T15:59:08;23.10;60.90
15983;DHT22;14442;50.196;8.096;2022-08-24T16:01:36;23.10;61.00
15983;DHT22;14442;50.196;8.096;2022-08-24T16:04:43;23.10;61.00
15983;DHT22;14442;50.196;8.096;2022-08-24T16:07:21;23.10;61.10
15983;DHT22;14442;50.196;8.096;2022-08-24T16:09:59;23.10;61.10
15983;DHT22;14442;50.196;8.096;2022-08-24T16:12:27;23.00;61.00
15983;DHT22;14442;50.196;8.096;2022-08-24T16:15:08;23.00;61.00
15983;DHT22;14442;50.196;8.096;2022-08-24T16:17:39;23.00;61.10
15983;DHT22;14442;50.196;8.096;2022-08-24T16:20:12;23.00;61.10
15983;DHT22;14442;50.196;8.096;2022-08-24T16:22:49;23.00;61.10
15983;DHT22;14442;50.196;8.096;2022-08-24T16:25:22;23.00;61.10
15983;DHT22;14442;50.196;8.096;2022-08-24T16:28:00;23.00;61.10
15983;DHT22;14442;50.196;8.096;2022-08-24T16:30:37;23.00;61.10
15983;DHT22;14442;50.196;8.096;2022-08-24T16:33:06;23.00;61.10
15983;DHT22;14442;50.196;8.096;2022-08-24T16:35:33;23.00;61.10
15983;DHT22;14442;50.196;8.096;2022-08-24T16:38:00;23.00;61.10
15983;DHT22;14442;50.196;8.096;2022-08-24T16:40:28;23.00;61.10
15983;DHT22;14442;50.196;8.096;2022-08-24T16:42:56;23.00;61.00
15983;DHT22;14442;50.196;8.096;2022-08-24T16:45:23;23.00;61.10